createdAt,value
2018-11-11T00:00:18.770Z,18.33
2018-11-11T00:02:47.287Z,18.13
2018-11-11T00:05:15.428Z,18.00
2018-11-11T00:07:43.535Z,17.53
2018-11-11T00:10:11.562Z,17.03
2018-11-11T00:12:39.713Z,19.03
2018-11-11T00:15:09.872Z,16.40
2018-11-11T00:17:37.968Z,17.60
2018-11-11T00:20:07.013Z,17.30
2018-11-11T00:22:35.205Z,16.57
2018-11-11T00:25:03.358Z,16.77
2018-11-11T00:27:32.551Z,16.57
2018-11-11T00:30:00.807Z,16.77
2018-11-11T00:32:29.009Z,17.80
2018-11-11T00:34:57.334Z,16.07
2018-11-11T00:37:25.501Z,18.87
2018-11-11T00:39:53.528Z,17.43
2018-11-11T00:42:21.490Z,17.30
2018-11-11T00:44:49.534Z,17.60
2018-11-11T00:47:17.608Z,17.47
2018-11-11T00:49:45.649Z,16.50
2018-11-11T00:52:13.788Z,18.27
2018-11-11T00:54:41.843Z,16.37
2018-11-11T00:57:09.920Z,16.60
2018-11-11T00:59:37.895Z,14.00
2018-11-11T01:02:06.025Z,16.80
2018-11-11T01:04:34.193Z,14.97
2018-11-11T01:07:02.439Z,16.50
2018-11-11T01:09:30.753Z,14.83
2018-11-11T01:11:58.901Z,14.63
2018-11-11T01:14:27.002Z,15.20
2018-11-11T01:16:55.186Z,15.40
2018-11-11T01:19:23.445Z,15.67
2018-11-11T01:21:51.803Z,15.30
2018-11-11T01:24:19.935Z,13.83
2018-11-11T01:26:48.107Z,14.30
2018-11-11T01:29:16.272Z,15.77
2018-11-11T01:31:44.384Z,15.30
2018-11-11T01:34:12.541Z,14.83
2018-11-11T01:36:40.741Z,15.57
2018-11-11T01:39:09.201Z,14.50
2018-11-11T01:41:37.424Z,13.63
2018-11-11T01:44:06.602Z,14.63
2018-11-11T01:46:34.604Z,15.27
2018-11-11T01:49:02.712Z,14.43
2018-11-11T01:51:30.848Z,12.97
2018-11-11T01:53:58.873Z,14.13
2018-11-11T01:56:27.028Z,12.50
2018-11-11T01:58:55.249Z,14.57
2018-11-11T02:01:23.368Z,13.87
2018-11-11T02:03:51.602Z,13.10
2018-11-11T02:06:19.756Z,15.13
2018-11-11T02:08:47.936Z,14.43
2018-11-11T02:11:16.276Z,13.63
2018-11-11T02:13:44.678Z,13.73
2018-11-11T02:16:12.644Z,14.90
2018-11-11T02:18:40.786Z,15.10
2018-11-11T02:21:08.911Z,15.53
2018-11-11T02:23:36.888Z,15.33
2018-11-11T02:26:05.313Z,14.27
2018-11-11T02:28:33.550Z,15.40
2018-11-11T02:31:01.594Z,15.10
2018-11-11T02:33:29.642Z,16.17
2018-11-11T02:35:57.762Z,15.37
2018-11-11T02:38:26.075Z,14.43
2018-11-11T02:40:54.256Z,14.73
2018-11-11T02:43:22.351Z,15.10
2018-11-11T02:45:50.443Z,15.73
2018-11-11T02:48:18.478Z,15.10
2018-11-11T02:50:46.729Z,16.00
2018-11-11T02:53:15.695Z,14.90
2018-11-11T02:55:43.854Z,16.10
2018-11-11T02:58:11.961Z,15.40
2018-11-11T03:00:40.081Z,17.63
2018-11-11T03:03:08.213Z,17.67
2018-11-11T03:05:36.275Z,17.53
2018-11-11T03:08:04.425Z,16.60
2018-11-11T03:10:32.449Z,17.20
2018-11-11T03:13:00.634Z,15.23
2018-11-11T03:15:28.641Z,16.27
2018-11-11T03:17:56.803Z,17.67
2018-11-11T03:20:24.845Z,17.67
2018-11-11T03:22:52.850Z,17.23
2018-11-11T03:25:20.895Z,18.13
2018-11-11T03:27:48.910Z,15.70
2018-11-11T03:30:17.756Z,17.33
2018-11-11T03:32:46.066Z,17.83
2018-11-11T03:35:14.561Z,17.67
2018-11-11T03:37:43.467Z,17.00
2018-11-11T03:40:13.910Z,18.37
2018-11-11T03:42:42.360Z,17.07
2018-11-11T03:45:12.144Z,16.27
2018-11-11T03:47:40.854Z,17.17
2018-11-11T03:50:09.612Z,16.87
2018-11-11T03:52:38.090Z,16.10
2018-11-11T03:55:06.698Z,17.43
2018-11-11T03:57:35.205Z,16.27
2018-11-11T04:00:03.635Z,15.87
2018-11-11T04:02:31.843Z,16.67
2018-11-11T04:05:00.076Z,15.17
2018-11-11T04:07:28.262Z,16.13
2018-11-11T04:09:56.588Z,17.20
2018-11-11T04:12:24.760Z,14.93
2018-11-11T04:14:52.982Z,16.13
2018-11-11T04:17:21.151Z,15.70
2018-11-11T04:19:49.472Z,15.17
2018-11-11T04:22:18.600Z,15.80
2018-11-11T04:24:48.441Z,17.17
2018-11-11T04:27:16.594Z,15.87
2018-11-11T04:29:44.642Z,16.27
2018-11-11T04:32:12.667Z,17.07
2018-11-11T04:34:41.625Z,19.70
2018-11-11T04:37:10.037Z,18.37
2018-11-11T04:39:38.420Z,17.00
2018-11-11T04:42:06.525Z,20.40
2018-11-11T04:44:34.869Z,19.43
2018-11-11T04:47:02.939Z,19.43
2018-11-11T04:49:30.997Z,21.40
2018-11-11T04:51:59.513Z,21.90
2018-11-11T04:54:27.605Z,18.20
2018-11-11T04:56:55.704Z,21.50
2018-11-11T04:59:23.771Z,20.47
2018-11-11T05:01:51.770Z,19.97
2018-11-11T05:04:19.898Z,18.30
2018-11-11T05:06:48.009Z,20.23
2018-11-11T05:09:16.175Z,19.13
2018-11-11T05:11:44.366Z,19.50
2018-11-11T05:14:12.512Z,18.67
2018-11-11T05:16:40.520Z,18.90
2018-11-11T05:19:09.872Z,17.33
2018-11-11T05:21:38.001Z,19.93
2018-11-11T05:24:06.229Z,19.00
2018-11-11T05:26:34.491Z,17.47
2018-11-11T05:29:02.989Z,16.97
2018-11-11T05:31:31.018Z,18.80
2018-11-11T05:33:59.100Z,18.60
2018-11-11T05:36:27.245Z,17.10
2018-11-11T05:38:55.508Z,21.87
2018-11-11T05:41:23.525Z,21.23
2018-11-11T05:43:51.911Z,20.93
2018-11-11T05:46:20.305Z,21.67
2018-11-11T05:48:48.708Z,23.60
2018-11-11T05:51:17.232Z,20.23
2018-11-11T05:53:46.182Z,21.33
2018-11-11T05:56:14.336Z,24.00
2018-11-11T05:58:42.685Z,22.93
2018-11-11T06:01:10.746Z,27.07
2018-11-11T06:03:38.871Z,26.93
2018-11-11T06:06:07.115Z,29.97
2018-11-11T06:08:35.084Z,24.57
2018-11-11T06:11:03.413Z,26.80
2018-11-11T06:13:31.678Z,27.87
2018-11-11T06:15:59.893Z,28.07
2018-11-11T06:18:27.928Z,28.20
2018-11-11T06:20:56.163Z,29.43
2018-11-11T06:23:24.334Z,28.23
2018-11-11T06:25:52.406Z,29.53
2018-11-11T06:28:20.671Z,29.43
2018-11-11T06:30:48.858Z,28.87
2018-11-11T06:33:17.176Z,28.30
2018-11-11T06:35:45.430Z,28.90
2018-11-11T06:38:13.690Z,28.53
2018-11-11T06:40:41.923Z,29.07
2018-11-11T06:43:10.049Z,26.90
2018-11-11T06:45:38.071Z,25.33
2018-11-11T06:48:06.154Z,25.23
2018-11-11T06:50:34.227Z,25.87
2018-11-11T06:53:02.427Z,25.17
2018-11-11T06:55:30.620Z,24.73
2018-11-11T06:57:58.701Z,26.00
2018-11-11T07:00:26.788Z,22.00
2018-11-11T07:03:05.949Z,22.77
2018-11-11T07:05:34.227Z,22.13
2018-11-11T07:08:02.345Z,20.33
2018-11-11T07:10:31.256Z,23.50
2018-11-11T07:12:59.442Z,21.03
2018-11-11T07:15:27.758Z,22.00
2018-11-11T07:17:56.100Z,20.90
2018-11-11T07:20:24.374Z,19.40
2018-11-11T07:22:53.144Z,17.87
2018-11-11T07:25:21.688Z,17.90
2018-11-11T07:27:49.875Z,17.07
2018-11-11T07:30:17.993Z,15.97
2018-11-11T07:32:46.305Z,16.33
2018-11-11T07:35:14.935Z,14.73
2018-11-11T07:37:42.973Z,14.77
2018-11-11T07:40:12.869Z,15.20
2018-11-11T07:42:41.263Z,13.03
2018-11-11T07:45:09.337Z,13.00
2018-11-11T07:47:37.558Z,14.20
2018-11-11T07:50:07.140Z,13.90
2018-11-11T07:52:35.466Z,11.50
2018-11-11T07:55:03.825Z,11.90
2018-11-11T07:57:31.924Z,10.63
2018-11-11T08:00:00.297Z,9.53
2018-11-11T08:02:28.765Z,9.90
2018-11-11T08:04:57.147Z,9.27
2018-11-11T08:07:25.308Z,8.40
2018-11-11T08:09:53.904Z,7.80
2018-11-11T08:12:22.302Z,7.70
2018-11-11T08:14:50.653Z,7.67
2018-11-11T08:17:18.807Z,8.07
2018-11-11T08:19:47.003Z,7.83
2018-11-11T08:22:15.179Z,8.30
2018-11-11T08:24:43.713Z,9.93
2018-11-11T08:27:12.177Z,9.70
2018-11-11T08:29:40.162Z,11.57
2018-11-11T08:32:08.322Z,10.47
2018-11-11T08:34:36.600Z,13.53
2018-11-11T08:37:05.157Z,12.33
2018-11-11T08:39:33.392Z,12.70
2018-11-11T08:42:02.800Z,13.63
2018-11-11T08:44:30.882Z,13.53
2018-11-11T08:46:59.167Z,14.00
2018-11-11T08:49:27.376Z,15.87
2018-11-11T08:51:55.550Z,17.90
2018-11-11T08:54:23.675Z,16.00
2018-11-11T08:56:51.812Z,17.07
2018-11-11T08:59:19.942Z,18.27
2018-11-11T09:01:48.098Z,19.00
2018-11-11T09:04:16.321Z,19.87
2018-11-11T09:06:44.592Z,20.20
2018-11-11T09:09:12.835Z,21.37
2018-11-11T09:11:41.145Z,21.83
2018-11-11T09:14:09.223Z,21.07
2018-11-11T09:16:37.294Z,20.60
2018-11-11T09:19:05.500Z,23.70
2018-11-11T09:21:33.857Z,23.37
2018-11-11T09:24:01.991Z,25.77
2018-11-11T09:26:30.317Z,24.63
2018-11-11T09:28:58.652Z,24.97
2018-11-11T09:31:26.858Z,22.37
2018-11-11T09:33:55.298Z,25.73
2018-11-11T09:36:23.586Z,25.37
2018-11-11T09:38:51.820Z,29.23
2018-11-11T09:41:20.184Z,26.47
2018-11-11T09:43:48.978Z,27.50
2018-11-11T09:46:17.341Z,26.40
2018-11-11T09:48:45.585Z,28.77
2018-11-11T09:51:13.649Z,28.27
2018-11-11T09:53:41.874Z,27.67
2018-11-11T09:56:10.037Z,27.87
2018-11-11T09:58:38.199Z,27.63
2018-11-11T10:01:06.354Z,27.20
2018-11-11T10:03:39.856Z,27.57
2018-11-11T10:06:16.364Z,28.93
2018-11-11T10:08:48.875Z,28.33
2018-11-11T10:11:30.387Z,29.13
2018-11-11T10:14:05.848Z,28.63
2018-11-11T10:16:50.315Z,28.57
2018-11-11T10:21:30.531Z,30.83
2018-11-11T10:24:10.589Z,33.00
2018-11-11T10:26:44.211Z,54.83
2018-11-11T10:30:19.792Z,35.90
2018-11-11T10:33:09.879Z,35.97
2018-11-11T10:35:43.964Z,34.77
2018-11-11T10:38:22.969Z,34.33
2018-11-11T10:41:05.131Z,35.83
2018-11-11T10:43:37.437Z,36.43
2018-11-11T10:46:10.703Z,32.57
2018-11-11T10:48:45.540Z,36.90
2018-11-11T10:51:13.711Z,30.70
2018-11-11T10:53:41.982Z,33.10
2018-11-11T10:56:10.144Z,33.80
2018-11-11T10:58:38.742Z,31.23
2018-11-11T11:01:07.826Z,30.17
2018-11-11T11:03:37.228Z,32.03
2018-11-11T11:06:05.599Z,34.00
2018-11-11T11:08:33.720Z,29.30
2018-11-11T11:11:02.120Z,30.67
2018-11-11T11:13:30.478Z,31.27
2018-11-11T11:15:59.441Z,29.27
2018-11-11T11:18:27.487Z,27.10
2018-11-11T11:20:55.876Z,29.63
2018-11-11T11:23:23.982Z,27.23
2018-11-11T11:25:52.056Z,30.73
2018-11-11T11:28:20.103Z,30.43
2018-11-11T11:30:48.130Z,28.63
2018-11-11T11:33:16.630Z,28.93
2018-11-11T11:35:45.511Z,30.57
2018-11-11T11:38:13.895Z,29.17
2018-11-11T11:40:41.867Z,30.20
2018-11-11T11:43:09.984Z,32.50
2018-11-11T11:45:38.084Z,29.33
2018-11-11T11:48:06.188Z,30.57
2018-11-11T11:50:34.541Z,30.70
2018-11-11T11:53:02.979Z,33.20
2018-11-11T11:55:31.139Z,31.60
2018-11-11T11:58:14.866Z,31.37
2018-11-11T12:00:43.604Z,31.50
2018-11-11T12:03:11.653Z,31.73
2018-11-11T12:05:39.861Z,30.57
2018-11-11T12:08:07.904Z,32.03
2018-11-11T12:10:36.326Z,32.40
2018-11-11T12:13:05.586Z,31.30
2018-11-11T12:15:33.667Z,31.77
2018-11-11T12:18:01.866Z,31.30
2018-11-11T12:23:12.685Z,31.33
2018-11-11T12:25:41.366Z,35.20
2018-11-11T12:28:09.583Z,31.60
2018-11-11T12:30:37.786Z,33.17
2018-11-11T12:33:06.111Z,32.43
2018-11-11T12:35:34.394Z,31.70
2018-11-11T12:38:02.791Z,37.10
2018-11-11T12:40:30.795Z,29.80
2018-11-11T12:42:59.684Z,31.43
2018-11-11T12:45:28.000Z,27.87
2018-11-11T12:47:56.127Z,28.27
2018-11-11T12:50:24.453Z,22.63
2018-11-11T12:52:52.633Z,24.73
2018-11-11T12:55:21.100Z,20.40
2018-11-11T12:57:49.207Z,20.37
2018-11-11T13:00:17.568Z,19.17
2018-11-11T13:02:46.128Z,19.40
2018-11-11T13:05:14.328Z,17.80
2018-11-11T13:07:42.443Z,18.20
2018-11-11T13:10:12.098Z,16.33
2018-11-11T13:12:40.724Z,15.70
2018-11-11T13:15:10.189Z,17.33
2018-11-11T13:17:38.660Z,15.57
2018-11-11T13:20:10.844Z,17.27
2018-11-11T13:22:38.996Z,18.23
2018-11-11T13:25:08.125Z,17.57
2018-11-11T13:27:36.476Z,20.70
2018-11-11T13:30:05.525Z,21.07
2018-11-11T13:32:33.960Z,21.17
2018-11-11T13:35:02.368Z,19.73
2018-11-11T13:37:30.745Z,18.57
2018-11-11T13:39:58.869Z,18.47
2018-11-11T13:42:27.376Z,19.13
2018-11-11T13:44:55.508Z,19.10
2018-11-11T13:47:23.839Z,18.90
2018-11-11T13:49:52.193Z,18.43
2018-11-11T13:52:20.196Z,21.53
2018-11-11T13:54:48.238Z,19.47
2018-11-11T13:57:16.774Z,22.47
2018-11-11T13:59:44.978Z,21.83
2018-11-11T14:02:13.178Z,22.63
2018-11-11T14:04:41.392Z,25.33
2018-11-11T14:07:09.694Z,22.27
2018-11-11T14:09:37.831Z,23.67
2018-11-11T14:12:06.594Z,23.50
2018-11-11T14:14:34.858Z,22.87
2018-11-11T14:17:04.460Z,19.53
2018-11-11T14:19:33.057Z,18.23
2018-11-11T14:22:01.201Z,18.33
2018-11-11T14:24:29.358Z,18.53
2018-11-11T14:26:57.694Z,21.07
2018-11-11T14:29:25.879Z,18.83
2018-11-11T14:31:54.064Z,21.37
2018-11-11T14:34:22.426Z,17.83
2018-11-11T14:36:50.627Z,15.50
2018-11-11T14:39:19.029Z,17.07
2018-11-11T14:41:47.306Z,17.63
2018-11-11T14:44:15.371Z,16.87
2018-11-11T14:46:43.681Z,18.30
2018-11-11T14:49:12.103Z,18.87
2018-11-11T14:51:40.195Z,18.90
2018-11-11T14:54:08.276Z,19.63
2018-11-11T14:56:36.798Z,16.93
2018-11-11T14:59:05.304Z,17.70
2018-11-11T15:01:33.579Z,16.63
2018-11-11T15:04:01.768Z,17.83
2018-11-11T15:06:36.657Z,17.27
2018-11-11T15:09:08.083Z,16.53
2018-11-11T15:11:36.104Z,16.50
2018-11-11T15:14:04.436Z,17.53
2018-11-11T15:16:32.471Z,18.03
2018-11-11T15:19:01.159Z,17.93
2018-11-11T15:21:29.361Z,16.23
2018-11-11T15:23:57.777Z,19.87
2018-11-11T15:26:25.940Z,16.50
2018-11-11T15:28:54.155Z,15.53
2018-11-11T15:31:22.344Z,16.00
2018-11-11T15:33:50.576Z,14.03
2018-11-11T15:36:18.632Z,15.77
2018-11-11T15:38:46.749Z,14.90
2018-11-11T15:41:14.937Z,13.53
2018-11-11T15:43:43.046Z,16.63
2018-11-11T15:46:11.233Z,13.80
2018-11-11T15:48:39.501Z,15.43
2018-11-11T15:51:07.734Z,15.60
2018-11-11T15:53:35.912Z,14.37
2018-11-11T15:56:04.088Z,13.83
2018-11-11T15:58:32.298Z,14.27
2018-11-11T16:01:00.378Z,14.87
2018-11-11T16:03:28.624Z,17.53
2018-11-11T16:05:56.768Z,16.13
2018-11-11T16:08:24.847Z,16.27
2018-11-11T16:10:52.940Z,15.20
2018-11-11T16:13:21.303Z,14.93
2018-11-11T16:15:49.431Z,16.77
2018-11-11T16:18:17.905Z,17.10
2018-11-11T16:20:46.011Z,16.87
2018-11-11T16:23:14.177Z,16.33
2018-11-11T16:25:42.343Z,17.57
2018-11-11T16:28:10.423Z,17.37
2018-11-11T16:30:41.350Z,17.97
2018-11-11T16:33:09.735Z,16.37
2018-11-11T16:35:37.837Z,16.30
2018-11-11T16:38:06.173Z,16.77
2018-11-11T16:40:35.678Z,17.00
2018-11-11T16:43:03.894Z,15.63
2018-11-11T16:45:32.936Z,16.60
2018-11-11T16:48:01.087Z,15.57
2018-11-11T16:50:30.808Z,15.93
2018-11-11T16:53:04.137Z,16.73
2018-11-11T16:55:32.977Z,16.23
2018-11-11T16:58:01.150Z,17.07
2018-11-11T17:00:33.824Z,15.50
2018-11-11T17:03:02.737Z,17.27
2018-11-11T17:05:32.209Z,20.70
2018-11-11T17:08:00.967Z,19.33
2018-11-11T17:10:31.392Z,24.07
2018-11-11T17:13:01.069Z,23.60
2018-11-11T17:15:30.444Z,19.73
2018-11-11T17:17:59.256Z,20.97
2018-11-11T17:20:27.593Z,18.80
2018-11-11T17:22:59.859Z,18.53
2018-11-11T17:25:28.232Z,20.73
2018-11-11T17:28:02.084Z,17.87
2018-11-11T17:30:36.734Z,19.47
2018-11-11T17:33:05.532Z,21.80
2018-11-11T17:35:33.691Z,21.77
2018-11-11T17:38:01.808Z,20.77
2018-11-11T17:40:30.587Z,20.53
2018-11-11T17:42:59.500Z,21.70
2018-11-11T17:45:27.567Z,21.07
2018-11-11T17:47:56.571Z,23.77
2018-11-11T17:50:29.264Z,22.53
2018-11-11T17:52:58.012Z,22.00
2018-11-11T17:55:26.916Z,23.13
2018-11-11T17:57:55.248Z,22.10
2018-11-11T18:00:24.568Z,24.67
2018-11-11T18:02:52.908Z,25.17
2018-11-11T18:05:22.316Z,23.80
2018-11-11T18:07:50.330Z,23.70
2018-11-11T18:10:19.823Z,21.67
2018-11-11T18:12:48.019Z,23.27
2018-11-11T18:15:17.758Z,21.47
2018-11-11T18:17:46.099Z,21.27
2018-11-11T18:20:15.885Z,22.23
2018-11-11T18:22:44.675Z,20.63
2018-11-11T18:25:12.905Z,19.73
2018-11-11T18:27:41.206Z,22.37
2018-11-11T18:30:11.994Z,17.00
2018-11-11T18:32:39.957Z,21.50
2018-11-11T18:35:09.704Z,20.17
2018-11-11T18:37:37.923Z,17.83
2018-11-11T18:40:07.554Z,18.50
2018-11-11T18:42:35.829Z,19.43
2018-11-11T18:45:04.083Z,21.27
2018-11-11T18:47:32.097Z,19.63
2018-11-11T18:50:00.113Z,21.77
2018-11-11T18:52:28.061Z,21.40
2018-11-11T18:54:57.078Z,20.23
2018-11-11T18:57:25.464Z,21.00
2018-11-11T18:59:53.575Z,23.33
2018-11-11T19:02:22.008Z,22.13
2018-11-11T19:04:50.109Z,22.03
2018-11-11T19:07:18.149Z,22.80
2018-11-11T19:09:46.451Z,20.07
2018-11-11T19:12:14.542Z,18.90
2018-11-11T19:14:42.665Z,18.33
2018-11-11T19:17:10.786Z,18.57
2018-11-11T19:19:38.820Z,15.93
2018-11-11T19:22:06.791Z,16.97
2018-11-11T19:24:35.123Z,17.60
2018-11-11T19:27:03.166Z,16.47
2018-11-11T19:29:31.228Z,17.90
2018-11-11T19:31:59.270Z,18.07
2018-11-11T19:34:27.578Z,17.57
2018-11-11T19:36:55.750Z,17.20
2018-11-11T19:39:23.864Z,17.00
2018-11-11T19:41:51.987Z,15.63
2018-11-11T19:44:20.115Z,17.00
2018-11-11T19:46:48.186Z,16.80
2018-11-11T19:49:16.583Z,14.40
2018-11-11T19:51:44.964Z,16.33
2018-11-11T19:54:12.991Z,17.80
2018-11-11T19:56:41.023Z,18.37
2018-11-11T19:59:09.111Z,17.23
2018-11-11T20:01:37.330Z,16.03
2018-11-11T20:04:06.272Z,16.23
2018-11-11T20:06:34.320Z,17.40
2018-11-11T20:09:02.790Z,18.00
2018-11-11T20:11:30.969Z,16.23
2018-11-11T20:13:59.091Z,15.80
2018-11-11T20:16:27.507Z,15.33
2018-11-11T20:18:55.650Z,16.67
2018-11-11T20:21:23.664Z,16.83
2018-11-11T20:23:52.643Z,16.27
2018-11-11T20:26:20.671Z,17.03
2018-11-11T20:28:48.910Z,17.57
2018-11-11T20:31:17.015Z,16.50
2018-11-11T20:33:45.071Z,17.50
2018-11-11T20:36:13.152Z,16.77
2018-11-11T20:38:41.211Z,17.47
2018-11-11T20:41:09.187Z,14.27
2018-11-11T20:43:37.217Z,15.03
2018-11-11T20:46:05.494Z,14.97
2018-11-11T20:48:33.564Z,14.17
2018-11-11T20:51:01.649Z,13.93
2018-11-11T20:53:29.727Z,15.60
2018-11-11T20:55:57.882Z,11.93
2018-11-11T20:58:26.021Z,13.53
2018-11-11T21:00:54.104Z,12.60
2018-11-11T21:03:22.210Z,12.57
2018-11-11T21:05:50.257Z,12.57
2018-11-11T21:08:18.387Z,12.10
2018-11-11T21:10:46.386Z,11.77
2018-11-11T21:13:14.330Z,11.00
2018-11-11T21:15:42.337Z,10.43
2018-11-11T21:18:10.395Z,10.27
2018-11-11T21:20:38.368Z,9.43
2018-11-11T21:23:06.207Z,8.70
2018-11-11T21:25:34.223Z,8.83
2018-11-11T21:28:02.345Z,9.77
2018-11-11T21:30:31.383Z,9.07
2018-11-11T21:32:59.547Z,8.47
2018-11-11T21:35:27.755Z,8.90
2018-11-11T21:37:55.821Z,10.53
2018-11-11T21:40:24.698Z,8.77
2018-11-11T21:42:53.386Z,8.67
2018-11-11T21:45:22.527Z,8.00
2018-11-11T21:47:50.489Z,10.27
2018-11-11T21:50:21.687Z,9.67
2018-11-11T21:52:59.283Z,8.10
2018-11-11T21:55:27.250Z,7.83
2018-11-11T21:57:55.220Z,8.90
2018-11-11T22:00:23.246Z,9.57
2018-11-11T22:02:51.314Z,9.70
2018-11-11T22:05:19.297Z,11.37
2018-11-11T22:07:47.279Z,11.67
2018-11-11T22:10:15.292Z,10.63
2018-11-11T22:12:43.516Z,11.87
2018-11-11T22:15:12.403Z,12.47
2018-11-11T22:17:40.831Z,12.33
2018-11-11T22:20:09.603Z,11.73
2018-11-11T22:22:37.561Z,12.40
2018-11-11T22:25:05.825Z,13.03
2018-11-11T22:27:33.929Z,12.27
2018-11-11T22:30:01.926Z,12.17
2018-11-11T22:32:30.033Z,12.77
2018-11-11T22:34:58.075Z,12.63
2018-11-11T22:37:26.095Z,10.53
2018-11-11T22:39:54.082Z,11.37
2018-11-11T22:42:22.047Z,12.37
2018-11-11T22:44:49.989Z,12.10
2018-11-11T22:47:18.029Z,13.23
2018-11-11T22:49:45.988Z,10.90
2018-11-11T22:52:20.770Z,11.17
2018-11-11T22:54:48.787Z,10.13
2018-11-11T22:57:16.864Z,10.13
2018-11-11T22:59:44.889Z,10.90
2018-11-11T23:02:12.917Z,10.17
2018-11-11T23:04:41.021Z,10.37
2018-11-11T23:07:09.172Z,9.40
2018-11-11T23:09:37.199Z,9.53
2018-11-11T23:12:05.241Z,10.30
2018-11-11T23:14:33.363Z,8.70
2018-11-11T23:17:01.541Z,8.43
2018-11-11T23:19:29.474Z,8.37
2018-11-11T23:21:57.509Z,8.80
2018-11-11T23:24:25.549Z,9.03
2018-11-11T23:26:53.646Z,9.70
2018-11-11T23:29:28.123Z,10.00
2018-11-11T23:31:56.160Z,11.47
2018-11-11T23:34:24.222Z,12.80
2018-11-11T23:36:52.291Z,14.10
2018-11-11T23:39:20.208Z,13.50
2018-11-11T23:41:48.147Z,13.10
2018-11-11T23:44:16.150Z,12.63
2018-11-11T23:46:44.232Z,16.00
2018-11-11T23:49:12.475Z,14.07
2018-11-11T23:51:40.455Z,17.17
2018-11-11T23:54:08.462Z,15.00
2018-11-11T23:56:36.470Z,17.00
2018-11-11T23:59:04.631Z,17.07
